Latest Weather Observations for Dubbo

IDN60801

Issued at 1:32 pm EST Saturday 5 September 2015 (issued every 30 minutes, with the page automatically refreshed every 10 minutes)

About weather observations | Map of weather stations | Latest weather observations for NSW | Other Formats
Station Details ID: 065070 Name: DUBBO AIRPORT AWS Lat: -32.22 Lon: 148.58 Height: 284.0 m
Data from the previous 72 hours. | See also: Recent months at Dubbo
Date/Time
EST
Temp
°C
App
Temp
°C
Dew
Point
Rel
Hum
%
Delta-T
°C
Wind Press
QNH
hPa
Press
MSL
hPa
Rain
since 9 am
mm
Dir
 
Spd
km/h
Gust
km/h
Spd
kts
Gust
kts
05/01:30pm 17.4 15.1 9.1 58 4.4 WSW 11 17 6 9 1020.9 1020.7 0.0
05/01:00pm 16.9 13.4 8.6 58 4.3 W 17 22 9 12 1021.3 1021.1 0.0
05/12:30pm 18.2 14.6 9.8 58 4.5 NW 19 24 10 13 1021.6 1021.4 0.0
05/12:00pm 16.3 15.1 9.5 64 3.6 WNW 6 11 3 6 1022.1 1021.9 0.0
05/11:30am 17.5 15.9 10.1 62 4.0 NW 9 15 5 8 1022.5 1022.4 0.0
05/11:00am 16.2 15.9 10.1 67 3.2 NE 2 7 1 4 1022.7 1022.6 0.0
05/10:30am 15.3 14.0 10.1 71 2.8 WSW 7 11 4 6 1023.1 1023.0 0.0
05/10:00am 14.1 12.7 9.7 75 2.3 NNW 7 11 4 6 1023.4 1023.2 0.0
05/09:30am 13.8 12.9 10.8 82 1.6 ESE 6 9 3 5 1023.6 1023.4 0.0
05/09:00am 11.7 11.5 10.3 91 0.7 S 2 7 1 4 1023.8 1023.6 0.0
05/08:30am 9.9 9.2 9.9 100 0.0 NNE 4 7 2 4 1023.6 1023.4 0.0
05/08:00am 7.8 7.3 7.8 100 0.0 CALM 0 0 0 0 1023.4 1023.2 0.0
05/07:30am 6.9 5.0 6.9 100 0.0 ENE 6 7 3 4 1022.9 1022.8 0.0
05/07:01am 5.5 3.2 5.5 100 0.0 ENE 7 11 4 6 1022.7 1022.6 0.0
05/07:00am 5.5 3.2 5.5 100 0.0 ENE 7 11 4 6 1022.7 1022.6 0.0
05/06:30am 4.3 3.0 4.3 100 0.0 CALM 0 6 0 3 1022.5 1022.4 0.0
05/06:00am 3.9 1.2 3.9 100 0.0 E 7 7 4 4 1022.3 1022.1 0.0
05/05:53am 3.4 0.6 3.4 100 0.0 ENE 7 7 4 4 1022.1 1021.9 0.0
05/05:38am 3.1 0.5 3.1 100 0.0 ENE 6 7 3 4 1022.0 1021.8 0.0
05/05:30am 3.4 0.6 3.4 100 0.0 ENE 7 7 4 4 1022.0 1021.8 0.0
05/05:04am 4.1 2.8 4.1 100 0.0 CALM 0 0 0 0 1021.6 1021.4 0.0
05/05:00am 4.1 2.8 4.1 100 0.0 CALM 0 0 0 0 1021.5 1021.3 0.0
05/04:30am 4.7 3.5 4.7 100 0.0 CALM 0 0 0 0 1021.3 1021.1 0.0
05/04:00am 6.6 5.1 6.6 100 0.0 SW 4 7 2 4 1021.2 1021.0 0.0
05/03:47am 6.3 5.5 6.3 100 0.0 CALM 0 6 0 3 1021.2 1021.0 0.0
05/03:30am 5.3 3.5 5.3 100 0.0 SW 4 7 2 4 1021.2 1021.0 0.0
05/03:00am 5.7 4.7 5.7 100 0.0 CALM 0 0 0 0 1021.3 1021.1 0.0
05/02:30am 6.1 3.5 6.1 100 0.0 SW 9 11 5 6 1021.5 1021.3 0.0
05/02:00am 7.0 6.3 7.0 100 0.0 CALM 0 0 0 0 1021.7 1021.5 0.0
05/01:37am 6.8 6.1 6.8 100 0.0 CALM 0 0 0 0 1021.9 1021.7 0.0
05/01:30am 6.5 5.7 6.5 100 0.0 CALM 0 0 0 0 1021.9 1021.7 0.0
05/01:00am 6.8 6.1 6.8 100 0.0 CALM 0 0 0 0 1022.1 1021.9 0.0
05/12:30am 6.7 5.9 6.7 100 0.0 CALM 0 0 0 0 1022.2 1022.0 0.0
05/12:00am 7.2 6.6 7.2 100 0.0 CALM 0 0 0 0 1022.3 1022.1 0.0
 
Date/Time
EST
Temp
°C
App
Temp
°C
Dew
Point
Rel
Hum
%
Delta-T
°C
Wind Press
QNH
hPa
Press
MSL
hPa
Rain
since 9 am
mm
Dir
 
Spd
km/h
Gust
km/h
Spd
kts
Gust
kts
04/11:35pm 8.1 7.7 8.1 100 0.0 CALM 0 0 0 0 1022.5 1022.4 0.0
04/11:30pm 8.5 8.1 8.4 99 0.0 CALM 0 0 0 0 1022.5 1022.4 0.0
04/11:00pm 7.4 4.9 6.5 94 0.4 SE 9 11 5 6 1022.5 1022.4 0.0
04/10:30pm 8.4 7.8 7.3 93 0.5 CALM 0 0 0 0 1022.6 1022.5 0.0
04/10:00pm 9.8 9.1 8.4 91 0.7 S 2 6 1 3 1022.6 1022.5 0.0
04/09:30pm 9.9 8.3 8.8 93 0.5 SE 7 7 4 4 1022.3 1022.1 0.0
04/09:00pm 9.5 7.3 7.9 90 0.8 ESE 9 9 5 5 1022.1 1021.9 0.0
04/08:30pm 10.0 8.4 7.9 87 1.0 SE 6 7 3 4 1022.1 1021.9 0.0
04/08:00pm 10.5 10.0 7.7 83 1.4 CALM 0 0 0 0 1021.9 1021.7 0.0
04/07:30pm 10.5 10.1 8.3 86 1.1 CALM 0 0 0 0 1021.7 1021.5 0.0
04/07:00pm 11.3 10.5 8.0 80 1.6 E 2 6 1 3 1021.5 1021.3 0.0
04/06:30pm 12.0 9.9 8.3 78 1.9 E 9 11 5 6 1021.1 1020.9 0.0
04/06:00pm 14.8 13.4 9.0 68 3.0 WNW 6 7 3 4 1021.0 1020.8 0.0
04/05:30pm 16.6 14.8 9.5 63 3.8 WNW 9 11 5 6 1021.0 1020.8 0.0
04/05:00pm 18.1 16.9 9.7 58 4.5 WNW 6 9 3 5 1020.9 1020.7 0.0
04/04:30pm 17.1 15.6 9.3 60 4.1 E 7 9 4 5 1020.9 1020.7 0.0
04/04:00pm 17.8 15.9 9.2 57 4.5 SE 9 13 5 7 1020.9 1020.7 0.0
04/03:30pm 18.4 17.1 10.0 58 4.5 SSE 7 13 4 7 1020.9 1020.7 0.0
04/03:00pm 18.2 16.2 8.7 54 5.0 ESE 9 13 5 7 1020.9 1020.7 0.0
04/02:30pm 18.6 16.9 9.9 57 4.7 E 9 15 5 8 1021.0 1020.8 0.0
04/02:00pm 17.4 15.6 9.6 60 4.1 SSE 9 15 5 8 1021.2 1021.0 0.0
04/01:30pm 17.4 15.5 9.1 58 4.4 SSE 9 15 5 8 1021.5 1021.3 0.0
04/01:00pm 17.2 14.5 8.9 58 4.3 SE 13 20 7 11 1021.8 1021.6 0.0
04/12:30pm 18.1 16.9 10.2 60 4.3 SSE 7 13 4 7 1022.0 1021.8 0.0
04/12:00pm 16.8 14.1 8.8 59 4.2 ESE 13 19 7 10 1022.3 1022.1 0.0
04/11:30am 17.0 15.8 10.4 65 3.6 SSW 7 13 4 7 1022.5 1022.4 0.0
04/11:00am 15.6 13.6 10.2 70 2.9 SSE 11 15 6 8 1022.7 1022.6 0.0
04/10:30am 14.9 12.1 9.9 72 2.6 SSE 15 20 8 11 1022.9 1022.8 0.0
04/10:00am 13.6 10.3 9.5 76 2.1 SE 17 20 9 11 1023.1 1023.0 0.0
04/09:30am 12.9 9.7 9.9 82 1.6 SSE 17 22 9 12 1023.1 1023.0 0.0
04/09:00am 11.6 7.3 9.2 85 1.2 SSE 22 28 12 15 1022.8 1022.7 5.4
04/08:30am 10.1 6.6 8.9 92 0.6 SE 17 24 9 13 1022.7 1022.6 5.4
04/08:00am 8.5 4.9 8.5 100 0.0 SSE 17 20 9 11 1022.6 1022.5 5.4
04/07:30am 7.4 5.5 7.4 100 0.0 SSE 7 11 4 6 1022.3 1022.1 5.4
04/07:00am 5.8 3.1 5.8 100 0.0 SE 9 13 5 7 1021.7 1021.5 5.4
04/06:49am 5.1 1.9 5.1 100 0.0 SE 11 13 6 7 1021.4 1021.2 5.4
04/06:30am 3.7 1.2 3.7 100 0.0 WSW 6 7 3 4 1021.1 1020.9 5.4
04/06:00am 3.2 0.0 3.2 100 0.0 E 9 13 5 7 1020.7 1020.5 5.4
04/05:56am 2.9 -0.7 2.9 100 0.0 ESE 11 13 6 7 1020.7 1020.5 5.4
04/05:30am 5.0 2.2 5.0 100 0.0 SSW 9 11 5 6 1020.5 1020.3 5.4
04/05:15am 4.7 1.4 4.7 100 0.0 WSW 11 15 6 8 1020.6 1020.4 5.4
04/05:00am 4.4 0.7 4.4 100 0.0 WSW 13 15 7 8 1020.4 1020.2 5.4
04/04:30am 4.0 1.0 4.0 100 0.0 W 9 11 5 6 1020.0 1019.8 5.4
04/04:00am 3.4 1.2 3.4 100 0.0 N 4 9 2 5 1019.4 1019.3 5.4
04/03:30am 3.4 0.3 3.4 100 0.0 NNW 9 13 5 7 1019.3 1019.1 5.4
04/03:10am 4.9 2.6 4.9 100 0.0 SSW 6 7 3 4 1019.2 1019.0 5.4
04/03:00am 5.4 2.7 5.4 100 0.0 S 9 9 5 5 1019.1 1018.9 5.4
04/02:51am 5.9 3.6 5.9 100 0.0 SSW 7 9 4 5 1019.2 1019.0 5.4
04/02:35am 5.3 2.1 5.3 100 0.0 WSW 11 13 6 7 1019.2 1019.0 5.4
04/02:30am 5.2 2.4 5.2 100 0.0 SW 9 13 5 7 1019.2 1019.0 5.4
04/02:00am 5.9 2.9 5.9 100 0.0 SW 11 11 6 6 1019.2 1019.0 5.4
04/01:30am 5.7 3.0 5.7 100 0.0 W 9 11 5 6 1019.4 1019.3 5.4
04/01:00am 7.3 5.3 7.3 100 0.0 W 7 9 4 5 1019.5 1019.4 5.4
04/12:30am 7.5 5.2 7.5 100 0.0 WSW 9 11 5 6 1019.4 1019.3 5.4
04/12:00am 7.9 4.5 7.8 99 0.0 SW 15 19 8 10 1019.1 1018.9 5.2
 
Date/Time
EST
Temp
°C
App
Temp
°C
Dew
Point
Rel
Hum
%
Delta-T
°C
Wind Press
QNH
hPa
Press
MSL
hPa
Rain
since 9 am
mm
Dir
 
Spd
km/h
Gust
km/h
Spd
kts
Gust
kts
03/11:30pm 8.7 6.7 8.6 99 0.0 WSW 9 13 5 7 1018.9 1018.7 5.2
03/11:00pm 9.3 7.1 9.2 99 0.0 WSW 11 15 6 8 1018.8 1018.6 5.2
03/10:30pm 9.5 7.3 9.4 99 0.1 W 11 13 6 7 1018.9 1018.7 5.2
03/10:00pm 9.2 6.8 8.6 96 0.3 WNW 11 13 6 7 1018.7 1018.5 5.2
03/09:30pm 8.8 6.7 8.2 96 0.3 W 9 13 5 7 1018.3 1018.1 5.2
03/09:00pm 8.9 7.5 8.8 99 0.0 W 6 9 3 5 1018.0 1017.8 5.2
03/08:30pm 8.8 6.2 7.9 94 0.4 SW 11 15 6 8 1017.3 1017.1 5.2
03/08:00pm 9.6 6.5 8.8 95 0.4 SW 15 20 8 11 1016.9 1016.7 5.2
03/07:30pm 9.7 5.9 8.9 95 0.4 SW 19 24 10 13 1016.3 1016.0 5.2
03/07:00pm 10.3 6.9 9.2 93 0.6 SW 17 24 9 13 1015.8 1015.6 5.2
03/06:30pm 10.5 6.5 8.9 90 0.8 WSW 20 30 11 16 1015.2 1015.0 5.2
03/06:00pm 10.5 6.6 8.8 89 0.9 WSW 19 24 10 13 1014.6 1014.4 5.2
03/05:30pm 11.0 8.3 9.1 88 1.0 SW 13 20 7 11 1014.2 1014.0 5.2
03/05:00pm 10.9 8.2 8.8 87 1.1 SW 13 20 7 11 1013.6 1013.4 5.2
03/04:30pm 11.3 6.4 8.3 82 1.5 WSW 24 39 13 21 1013.1 1012.8 4.8
03/04:08pm 12.1 8.1 9.1 82 1.5 W 20 39 11 21 1012.3 1012.0 4.8
03/04:00pm 12.5 10.3 10.9 90 0.8 W 13 17 7 9 1012.0 1011.8 4.8
03/03:30pm 11.5 8.9 10.7 95 0.4 WSW 15 22 8 12 1011.6 1011.4 4.8
03/03:06pm 10.8 8.0 9.9 94 0.5 SW 15 20 8 11 1011.4 1011.2 4.8
03/03:00pm 10.5 7.2 9.4 93 0.6 SW 17 22 9 12 1011.4 1011.2 4.8
03/02:46pm 10.4 5.7 7.8 84 1.3 WSW 22 44 12 24 1011.3 1011.1 4.2
03/02:44pm 11.9 8.0 8.7 81 1.6 W 19 44 10 24 1011.2 1011.0 2.0
03/02:30pm 13.8 10.3 8.6 71 2.7 WNW 17 26 9 14 1010.6 1010.4 1.0
03/02:00pm 13.9 10.7 9.9 77 2.1 WSW 17 20 9 11 1010.3 1010.0 1.0
03/01:30pm 13.1 9.3 9.2 77 2.0 WSW 19 24 10 13 1010.6 1010.4 1.0
03/01:00pm 13.4 10.4 10.8 84 1.4 W 17 22 9 12 1010.6 1010.4 1.0
03/12:37pm 12.0 7.8 9.7 86 1.2 WSW 22 28 12 15 1010.8 1010.6 1.0
03/12:30pm 11.8 7.9 9.5 86 1.2 WSW 20 28 11 15 1010.8 1010.6 1.0
03/12:00pm 11.3 8.1 9.9 91 0.7 WSW 17 20 9 11 1011.0 1010.8 1.0
03/11:33am 10.8 8.4 10.0 95 0.4 WSW 13 15 7 8 1011.2 1011.0 0.8
03/11:30am 11.0 8.6 10.2 95 0.4 WSW 13 15 7 8 1011.2 1011.0 0.8
03/11:00am 10.3 7.7 9.2 93 0.6 WSW 13 15 7 8 1010.9 1010.7 0.4
03/10:55am 10.3 7.7 9.2 93 0.6 WSW 13 17 7 9 1010.8 1010.6 0.4
03/10:30am 10.5 7.6 9.6 94 0.5 WNW 15 20 8 11 1010.8 1010.6 0.2
03/10:12am 10.2 6.3 8.8 91 0.7 WNW 19 28 10 15 1010.8 1010.6 0.0
03/10:00am 10.5 6.4 8.6 88 0.9 WNW 20 26 11 14 1010.6 1010.4 0.0
03/09:30am 10.6 7.3 8.2 85 1.2 NW 15 20 8 11 1010.4 1010.2 0.0
03/09:00am 10.2 8.3 9.1 93 0.6 WNW 9 13 5 7 1010.3 1010.0 1.2
03/08:30am 9.6 7.7 9.0 96 0.3 WNW 9 11 5 6 1009.9 1009.6 1.2
03/08:00am 9.3 7.5 9.3 100 0.0 NNW 9 13 5 7 1009.3 1009.0 1.2
03/07:30am 8.2 6.5 8.2 100 0.0 NNW 7 11 4 6 1008.9 1008.6 1.2
03/07:00am 7.7 5.8 7.7 100 0.0 WNW 7 9 4 5 1008.6 1008.3 1.2
03/06:51am 7.6 5.7 7.6 100 0.0 NW 7 9 4 5 1008.6 1008.3 1.2
03/06:30am 6.3 5.5 6.3 100 0.0 CALM 0 0 0 0 1008.1 1007.9 1.2
03/06:00am 5.4 3.0 5.4 100 0.0 WNW 7 9 4 5 1008.1 1007.9 1.2
03/05:30am 5.7 3.6 5.7 100 0.0 NNW 6 7 3 4 1007.9 1007.7 1.2
03/05:00am 5.9 3.6 5.9 100 0.0 N 7 9 4 5 1007.6 1007.4 1.2
03/04:46am 5.0 2.1 4.9 99 0.0 N 9 11 5 6 1007.4 1007.2 1.2
03/04:30am 6.0 3.8 6.0 100 0.0 NNW 7 9 4 5 1007.3 1007.0 1.2
03/04:09am 6.9 4.5 6.9 100 0.0 NNW 9 11 5 6 1007.4 1007.2 1.2
03/04:00am 7.1 4.7 7.1 100 0.0 NNW 9 11 5 6 1007.4 1007.2 1.2
03/03:30am 7.9 6.0 7.6 98 0.1 NW 7 9 4 5 1007.5 1007.3 1.2
03/03:00am 8.7 6.2 8.1 96 0.3 W 11 19 6 10 1007.5 1007.3 1.2
03/02:30am 10.2 6.5 9.4 95 0.4 WNW 19 26 10 14 1007.8 1007.6 1.2
03/02:00am 11.1 5.8 9.9 92 0.6 WNW 28 37 15 20 1007.9 1007.7 1.2
03/01:30am 11.8 7.0 10.4 91 0.7 WNW 26 35 14 19 1007.8 1007.6 1.2
03/01:00am 12.7 8.2 10.2 85 1.3 NW 24 32 13 17 1007.7 1007.5 1.2
03/12:30am 12.4 9.2 10.0 85 1.2 NNW 17 20 9 11 1007.4 1007.2 1.2
03/12:00am 12.0 10.3 9.9 87 1.1 WNW 9 13 5 7 1007.4 1007.2 1.2
 
Date/Time
EST
Temp
°C
App
Temp
°C
Dew
Point
Rel
Hum
%
Delta-T
°C
Wind Press
QNH
hPa
Press
MSL
hPa
Rain
since 9 am
mm
Dir
 
Spd
km/h
Gust
km/h
Spd
kts
Gust
kts
02/11:30pm 10.7 9.2 9.0 89 0.9 WNW 7 13 4 7 1007.4 1007.2 1.2
02/11:00pm 11.9 9.5 10.0 88 1.0 ENE 13 17 7 9 1006.9 1006.6 1.2
02/10:30pm 12.8 12.8 9.8 82 1.6 CALM 0 7 0 4 1007.5 1007.3 1.2
02/10:00pm 13.3 10.9 9.9 80 1.8 WNW 13 15 7 8 1008.1 1007.9 0.6
02/09:30pm 14.9 11.6 8.2 64 3.4 ENE 15 20 8 11 1006.6 1006.3 0.0
02/09:00pm 15.0 10.7 8.0 63 3.6 NE 20 30 11 16 1007.0 1006.7 0.0
02/08:30pm 15.9 11.7 8.4 61 3.9 NE 20 26 11 14 1007.5 1007.3 0.0
02/08:00pm 16.8 12.5 6.9 52 5.0 ENE 19 26 10 14 1007.0 1006.7 0.0
02/07:30pm 15.7 11.4 7.2 57 4.3 E 19 22 10 12 1007.0 1006.7 0.0
02/07:00pm 15.5 11.6 7.3 58 4.1 E 17 19 9 10 1007.8 1007.6 0.0
02/06:30pm 15.1 12.2 6.7 57 4.2 ENE 11 13 6 7 1008.4 1008.2 0.0
02/06:00pm 15.8 12.7 7.3 57 4.3 NNE 13 15 7 8 1008.7 1008.4 0.0
02/05:30pm 16.7 13.1 6.8 52 5.0 NNE 15 15 8 8 1008.9 1008.6 0.0
02/05:00pm 17.8 14.6 7.0 49 5.5 NNE 13 17 7 9 1008.9 1008.6 0.0
02/04:30pm 17.9 15.0 6.4 47 5.8 NNE 11 15 6 8 1009.1 1008.8 0.0
02/04:00pm 18.9 14.7 5.7 42 6.6 NE 17 20 9 11 1009.4 1009.1 0.0
02/03:30pm 19.1 14.9 5.9 42 6.6 N 17 22 9 12 1010.5 1010.3 0.0
02/03:00pm 19.9 13.5 3.2 33 8.0 N 26 32 14 17 1011.0 1010.8 0.0
02/02:30pm 20.5 13.6 2.3 30 8.6 NNE 28 37 15 20 1011.1 1010.9 0.0
02/02:00pm 19.9 14.3 5.2 38 7.3 NE 24 33 13 18 1011.5 1011.3 0.0

Other Formats:

Comma delimited format used in spreadsheet applications
http://www.bom.gov.au/fwo/IDN60801/IDN60801.95719.axf

JavaScript Object Notation format (JSON) in row-major order
http://www.bom.gov.au/fwo/IDN60801/IDN60801.95719.json